sensor_id;sensor_type;location;lat;lon;timestamp;P1;durP1;ratioP1;P2;durP2;ratioP2
55037;SDS011;40937;53.594;10.034;2022-09-24T00:00:39;10.05;;;5.50;;
55037;SDS011;40937;53.594;10.034;2022-09-24T00:03:05;7.95;;;5.80;;
55037;SDS011;40937;53.594;10.034;2022-09-24T00:05:35;7.45;;;6.13;;
55037;SDS011;40937;53.594;10.034;2022-09-24T00:08:03;6.63;;;5.40;;
55037;SDS011;40937;53.594;10.034;2022-09-24T00:10:30;6.25;;;5.60;;
55037;SDS011;40937;53.594;10.034;2022-09-24T00:12:57;7.82;;;5.95;;
55037;SDS011;40937;53.594;10.034;2022-09-24T00:15:23;6.88;;;6.20;;
55037;SDS011;40937;53.594;10.034;2022-09-24T00:17:50;12.57;;;6.30;;
55037;SDS011;40937;53.594;10.034;2022-09-24T00:20:16;6.97;;;5.78;;
55037;SDS011;40937;53.594;10.034;2022-09-24T00:22:43;7.05;;;6.28;;
55037;SDS011;40937;53.594;10.034;2022-09-24T00:25:11;7.63;;;6.22;;
55037;SDS011;40937;53.594;10.034;2022-09-24T00:27:55;6.47;;;5.88;;
55037;SDS011;40937;53.594;10.034;2022-09-24T00:30:21;6.93;;;6.32;;
55037;SDS011;40937;53.594;10.034;2022-09-24T00:32:48;7.10;;;5.20;;
55037;SDS011;40937;53.594;10.034;2022-09-24T00:35:15;6.22;;;5.60;;
55037;SDS011;40937;53.594;10.034;2022-09-24T00:37:42;6.53;;;5.53;;
55037;SDS011;40937;53.594;10.034;2022-09-24T00:40:10;9.57;;;5.80;;
55037;SDS011;40937;53.594;10.034;2022-09-24T00:42:39;8.30;;;5.80;;
55037;SDS011;40937;53.594;10.034;2022-09-24T00:45:07;6.28;;;5.72;;
55037;SDS011;40937;53.594;10.034;2022-09-24T00:47:36;9.95;;;6.20;;
55037;SDS011;40937;53.594;10.034;2022-09-24T00:50:09;7.32;;;5.65;;
55037;SDS011;40937;53.594;10.034;2022-09-24T00:52:41;7.25;;;6.28;;
55037;SDS011;40937;53.594;10.034;2022-09-24T00:55:13;6.75;;;6.05;;
55037;SDS011;40937;53.594;10.034;2022-09-24T00:57:41;6.95;;;5.68;;
55037;SDS011;40937;53.594;10.034;2022-09-24T01:00:09;8.60;;;5.93;;
55037;SDS011;40937;53.594;10.034;2022-09-24T01:02:36;6.97;;;6.13;;
55037;SDS011;40937;53.594;10.034;2022-09-24T01:05:07;7.53;;;5.68;;
55037;SDS011;40937;53.594;10.034;2022-09-24T01:07:34;6.80;;;5.80;;
55037;SDS011;40937;53.594;10.034;2022-09-24T01:10:01;7.63;;;6.03;;
55037;SDS011;40937;53.594;10.034;2022-09-24T01:12:31;8.10;;;6.07;;
55037;SDS011;40937;53.594;10.034;2022-09-24T01:15:09;7.30;;;6.18;;
55037;SDS011;40937;53.594;10.034;2022-09-24T01:17:44;6.25;;;5.65;;
55037;SDS011;40937;53.594;10.034;2022-09-24T01:20:30;6.35;;;5.75;;
55037;SDS011;40937;53.594;10.034;2022-09-24T01:23:29;8.38;;;5.78;;
55037;SDS011;40937;53.594;10.034;2022-09-24T01:26:15;5.47;;;5.07;;
55037;SDS011;40937;53.594;10.034;2022-09-24T01:29:02;6.60;;;6.03;;
55037;SDS011;40937;53.594;10.034;2022-09-24T01:31:37;6.55;;;6.05;;
55037;SDS011;40937;53.594;10.034;2022-09-24T01:34:11;11.85;;;6.38;;
55037;SDS011;40937;53.594;10.034;2022-09-24T01:36:43;6.72;;;6.18;;
55037;SDS011;40937;53.594;10.034;2022-09-24T01:39:14;8.13;;;5.88;;
55037;SDS011;40937;53.594;10.034;2022-09-24T01:41:42;7.50;;;6.65;;
55037;SDS011;40937;53.594;10.034;2022-09-24T01:44:11;9.13;;;6.80;;
55037;SDS011;40937;53.594;10.034;2022-09-24T01:46:39;7.03;;;6.10;;
55037;SDS011;40937;53.594;10.034;2022-09-24T01:49:07;7.20;;;6.60;;
55037;SDS011;40937;53.594;10.034;2022-09-24T01:51:36;7.03;;;6.35;;
55037;SDS011;40937;53.594;10.034;2022-09-24T01:54:09;8.85;;;6.60;;
55037;SDS011;40937;53.594;10.034;2022-09-24T01:56:44;7.32;;;6.25;;
55037;SDS011;40937;53.594;10.034;2022-09-24T01:59:15;7.05;;;6.35;;
55037;SDS011;40937;53.594;10.034;2022-09-24T02:01:49;6.82;;;6.00;;
55037;SDS011;40937;53.594;10.034;2022-09-24T02:04:20;6.78;;;6.20;;
55037;SDS011;40937;53.594;10.034;2022-09-24T02:06:52;9.75;;;6.45;;
55037;SDS011;40937;53.594;10.034;2022-09-24T02:09:28;9.95;;;6.30;;
55037;SDS011;40937;53.594;10.034;2022-09-24T02:11:56;8.07;;;5.90;;
55037;SDS011;40937;53.594;10.034;2022-09-24T02:14:27;6.72;;;6.13;;
55037;SDS011;40937;53.594;10.034;2022-09-24T02:16:58;10.00;;;6.60;;
55037;SDS011;40937;53.594;10.034;2022-09-24T02:19:26;8.00;;;6.10;;
55037;SDS011;40937;53.594;10.034;2022-09-24T02:21:55;6.70;;;6.15;;
55037;SDS011;40937;53.594;10.034;2022-09-24T02:24:23;6.47;;;5.90;;
55037;SDS011;40937;53.594;10.034;2022-09-24T02:26:57;7.10;;;6.40;;
55037;SDS011;40937;53.594;10.034;2022-09-24T02:29:24;6.97;;;6.38;;
55037;SDS011;40937;53.594;10.034;2022-09-24T02:31:51;6.60;;;6.00;;
55037;SDS011;40937;53.594;10.034;2022-09-24T02:34:24;6.63;;;5.90;;
55037;SDS011;40937;53.594;10.034;2022-09-24T02:36:53;7.63;;;6.40;;
55037;SDS011;40937;53.594;10.034;2022-09-24T02:39:23;6.30;;;5.70;;
55037;SDS011;40937;53.594;10.034;2022-09-24T02:41:50;7.35;;;6.65;;
55037;SDS011;40937;53.594;10.034;2022-09-24T02:44:19;8.02;;;6.90;;
55037;SDS011;40937;53.594;10.034;2022-09-24T02:46:46;7.03;;;6.43;;
55037;SDS011;40937;53.594;10.034;2022-09-24T02:49:15;7.45;;;6.85;;
55037;SDS011;40937;53.594;10.034;2022-09-24T02:51:44;9.38;;;6.47;;
55037;SDS011;40937;53.594;10.034;2022-09-24T02:54:10;8.63;;;7.32;;
55037;SDS011;40937;53.594;10.034;2022-09-24T02:56:37;7.40;;;6.70;;
55037;SDS011;40937;53.594;10.034;2022-09-24T02:59:04;7.28;;;6.63;;
55037;SDS011;40937;53.594;10.034;2022-09-24T03:01:32;7.55;;;6.78;;
55037;SDS011;40937;53.594;10.034;2022-09-24T03:03:59;8.45;;;7.25;;
55037;SDS011;40937;53.594;10.034;2022-09-24T03:06:26;7.40;;;6.78;;
55037;SDS011;40937;53.594;10.034;2022-09-24T03:08:55;7.95;;;7.32;;
55037;SDS011;40937;53.594;10.034;2022-09-24T03:11:23;10.50;;;7.88;;
55037;SDS011;40937;53.594;10.034;2022-09-24T03:13:49;9.93;;;9.02;;
55037;SDS011;40937;53.594;10.034;2022-09-24T03:16:17;9.40;;;8.35;;
55037;SDS011;40937;53.594;10.034;2022-09-24T03:18:44;9.02;;;8.15;;
55037;SDS011;40937;53.594;10.034;2022-09-24T03:21:12;9.23;;;8.13;;
55037;SDS011;40937;53.594;10.034;2022-09-24T03:23:40;9.93;;;9.10;;
55037;SDS011;40937;53.594;10.034;2022-09-24T03:26:08;10.05;;;9.15;;
55037;SDS011;40937;53.594;10.034;2022-09-24T03:28:35;10.43;;;9.52;;
55037;SDS011;40937;53.594;10.034;2022-09-24T03:31:02;10.15;;;8.93;;
55037;SDS011;40937;53.594;10.034;2022-09-24T03:33:29;11.45;;;10.45;;
55037;SDS011;40937;53.594;10.034;2022-09-24T03:35:57;10.55;;;9.65;;
55037;SDS011;40937;53.594;10.034;2022-09-24T03:38:25;13.57;;;9.60;;
55037;SDS011;40937;53.594;10.034;2022-09-24T03:40:52;10.93;;;9.60;;
55037;SDS011;40937;53.594;10.034;2022-09-24T03:43:20;12.15;;;9.85;;
55037;SDS011;40937;53.594;10.034;2022-09-24T03:45:46;9.73;;;9.02;;
55037;SDS011;40937;53.594;10.034;2022-09-24T03:48:13;11.05;;;10.05;;
55037;SDS011;40937;53.594;10.034;2022-09-24T03:50:41;10.13;;;9.18;;
55037;SDS011;40937;53.594;10.034;2022-09-24T03:53:08;12.05;;;9.93;;
55037;SDS011;40937;53.594;10.034;2022-09-24T03:55:40;10.55;;;9.55;;
55037;SDS011;40937;53.594;10.034;2022-09-24T03:58:08;11.18;;;10.02;;
55037;SDS011;40937;53.594;10.034;2022-09-24T04:00:36;11.65;;;9.98;;
55037;SDS011;40937;53.594;10.034;2022-09-24T04:03:03;11.48;;;10.27;;
55037;SDS011;40937;53.594;10.034;2022-09-24T04:05:30;12.43;;;10.65;;
55037;SDS011;40937;53.594;10.034;2022-09-24T04:07:57;11.35;;;10.25;;
55037;SDS011;40937;53.594;10.034;2022-09-24T04:10:23;11.18;;;10.38;;
55037;SDS011;40937;53.594;10.034;2022-09-24T04:12:50;11.10;;;10.30;;
55037;SDS011;40937;53.594;10.034;2022-09-24T04:15:17;11.38;;;10.43;;
55037;SDS011;40937;53.594;10.034;2022-09-24T04:17:49;11.82;;;10.77;;
55037;SDS011;40937;53.594;10.034;2022-09-24T04:20:16;11.95;;;10.73;;
55037;SDS011;40937;53.594;10.034;2022-09-24T04:22:47;11.35;;;10.35;;
55037;SDS011;40937;53.594;10.034;2022-09-24T04:25:14;11.52;;;10.38;;
55037;SDS011;40937;53.594;10.034;2022-09-24T04:27:40;11.82;;;10.80;;
55037;SDS011;40937;53.594;10.034;2022-09-24T04:30:08;11.45;;;10.40;;
55037;SDS011;40937;53.594;10.034;2022-09-24T04:32:36;12.73;;;11.55;;
55037;SDS011;40937;53.594;10.034;2022-09-24T04:35:04;12.32;;;11.13;;
55037;SDS011;40937;53.594;10.034;2022-09-24T04:37:31;13.35;;;12.10;;
55037;SDS011;40937;53.594;10.034;2022-09-24T04:39:58;12.73;;;11.52;;
55037;SDS011;40937;53.594;10.034;2022-09-24T04:42:24;13.13;;;11.93;;
55037;SDS011;40937;53.594;10.034;2022-09-24T04:44:51;14.35;;;12.02;;
55037;SDS011;40937;53.594;10.034;2022-09-24T04:47:18;13.02;;;11.93;;
55037;SDS011;40937;53.594;10.034;2022-09-24T04:49:44;13.65;;;12.13;;
55037;SDS011;40937;53.594;10.034;2022-09-24T04:52:12;16.13;;;13.07;;
55037;SDS011;40937;53.594;10.034;2022-09-24T04:54:40;13.77;;;12.60;;
55037;SDS011;40937;53.594;10.034;2022-09-24T04:57:09;13.70;;;12.50;;
55037;SDS011;40937;53.594;10.034;2022-09-24T04:59:35;13.77;;;12.20;;
55037;SDS011;40937;53.594;10.034;2022-09-24T05:02:02;13.57;;;12.38;;
55037;SDS011;40937;53.594;10.034;2022-09-24T05:04:31;13.15;;;11.75;;
55037;SDS011;40937;53.594;10.034;2022-09-24T05:06:58;12.98;;;11.88;;
55037;SDS011;40937;53.594;10.034;2022-09-24T05:09:26;12.55;;;11.40;;
55037;SDS011;40937;53.594;10.034;2022-09-24T05:11:55;12.75;;;11.82;;
55037;SDS011;40937;53.594;10.034;2022-09-24T05:14:21;15.07;;;12.00;;
55037;SDS011;40937;53.594;10.034;2022-09-24T05:16:48;13.90;;;12.70;;
55037;SDS011;40937;53.594;10.034;2022-09-24T05:19:14;13.68;;;12.57;;
55037;SDS011;40937;53.594;10.034;2022-09-24T05:21:41;13.82;;;12.50;;
55037;SDS011;40937;53.594;10.034;2022-09-24T05:24:08;14.40;;;13.00;;
55037;SDS011;40937;53.594;10.034;2022-09-24T05:26:36;13.50;;;12.43;;
55037;SDS011;40937;53.594;10.034;2022-09-24T05:29:20;14.35;;;12.90;;
55037;SDS011;40937;53.594;10.034;2022-09-24T05:31:46;16.25;;;13.88;;
55037;SDS011;40937;53.594;10.034;2022-09-24T07:35:29;16.92;;;15.50;;
55037;SDS011;40937;53.594;10.034;2022-09-24T07:42:47;17.25;;;15.77;;
55037;SDS011;40937;53.594;10.034;2022-09-24T07:46:33;16.50;;;14.88;;
55037;SDS011;40937;53.594;10.034;2022-09-24T08:01:59;15.20;;;14.02;;
55037;SDS011;40937;53.594;10.034;2022-09-24T08:05:20;14.18;;;13.13;;
55037;SDS011;40937;53.594;10.034;2022-09-24T08:08:38;16.27;;;14.90;;
55037;SDS011;40937;53.594;10.034;2022-09-24T08:17:28;16.13;;;14.82;;
55037;SDS011;40937;53.594;10.034;2022-09-24T08:43:59;17.40;;;16.00;;
55037;SDS011;40937;53.594;10.034;2022-09-24T08:44:51;16.42;;;15.05;;
55037;SDS011;40937;53.594;10.034;2022-09-24T08:52:00;17.13;;;15.70;;
55037;SDS011;40937;53.594;10.034;2022-09-24T09:16:43;16.98;;;15.48;;
55037;SDS011;40937;53.594;10.034;2022-09-24T09:19:56;17.92;;;16.35;;
55037;SDS011;40937;53.594;10.034;2022-09-24T09:26:14;17.17;;;15.77;;
55037;SDS011;40937;53.594;10.034;2022-09-24T09:27:04;17.88;;;16.38;;
55037;SDS011;40937;53.594;10.034;2022-09-24T09:30:02;17.80;;;15.98;;
55037;SDS011;40937;53.594;10.034;2022-09-24T09:44:36;20.25;;;18.33;;
55037;SDS011;40937;53.594;10.034;2022-09-24T09:47:24;19.42;;;17.75;;
55037;SDS011;40937;53.594;10.034;2022-09-24T09:57:53;20.33;;;18.73;;
55037;SDS011;40937;53.594;10.034;2022-09-24T10:01:14;21.80;;;19.80;;
55037;SDS011;40937;53.594;10.034;2022-09-24T10:04:26;22.00;;;20.15;;
55037;SDS011;40937;53.594;10.034;2022-09-24T10:08:00;22.30;;;20.15;;
55037;SDS011;40937;53.594;10.034;2022-09-24T10:15:11;24.23;;;21.48;;
55037;SDS011;40937;53.594;10.034;2022-09-24T10:26:31;26.02;;;23.58;;
55037;SDS011;40937;53.594;10.034;2022-09-24T10:33:24;26.42;;;23.95;;
55037;SDS011;40937;53.594;10.034;2022-09-24T10:36:57;24.73;;;22.45;;
55037;SDS011;40937;53.594;10.034;2022-09-24T10:40:29;27.70;;;24.77;;
55037;SDS011;40937;53.594;10.034;2022-09-24T10:44:07;26.67;;;24.08;;
55037;SDS011;40937;53.594;10.034;2022-09-24T10:47:12;27.15;;;24.65;;
55037;SDS011;40937;53.594;10.034;2022-09-24T10:53:54;27.50;;;24.88;;
55037;SDS011;40937;53.594;10.034;2022-09-24T10:57:08;26.70;;;24.40;;
55037;SDS011;40937;53.594;10.034;2022-09-24T11:00:46;29.33;;;26.58;;
55037;SDS011;40937;53.594;10.034;2022-09-24T12:30:13;28.05;;;25.13;;
55037;SDS011;40937;53.594;10.034;2022-09-24T12:37:52;26.67;;;24.20;;
55037;SDS011;40937;53.594;10.034;2022-09-24T12:41:37;24.67;;;22.42;;
55037;SDS011;40937;53.594;10.034;2022-09-24T12:57:38;26.65;;;24.15;;
55037;SDS011;40937;53.594;10.034;2022-09-24T13:06:49;25.08;;;22.55;;
55037;SDS011;40937;53.594;10.034;2022-09-24T13:24:27;24.92;;;22.63;;
55037;SDS011;40937;53.594;10.034;2022-09-24T13:27:35;26.40;;;24.10;;
55037;SDS011;40937;53.594;10.034;2022-09-24T13:30:17;23.65;;;21.58;;
55037;SDS011;40937;53.594;10.034;2022-09-24T15:01:04;19.50;;;17.45;;
55037;SDS011;40937;53.594;10.034;2022-09-24T15:04:29;26.15;;;12.38;;
55037;SDS011;40937;53.594;10.034;2022-09-24T15:15:23;23.40;;;21.40;;
55037;SDS011;40937;53.594;10.034;2022-09-24T15:22:26;24.85;;;22.70;;
55037;SDS011;40937;53.594;10.034;2022-09-24T15:25:42;27.05;;;24.45;;
55037;SDS011;40937;53.594;10.034;2022-09-24T15:29:05;24.90;;;22.77;;
55037;SDS011;40937;53.594;10.034;2022-09-24T15:32:11;26.05;;;23.55;;
55037;SDS011;40937;53.594;10.034;2022-09-24T15:39:04;27.23;;;24.90;;
55037;SDS011;40937;53.594;10.034;2022-09-24T15:46:25;30.45;;;27.63;;
55037;SDS011;40937;53.594;10.034;2022-09-24T15:49:15;26.98;;;24.65;;
55037;SDS011;40937;53.594;10.034;2022-09-24T15:52:07;31.17;;;28.17;;
55037;SDS011;40937;53.594;10.034;2022-09-24T20:04:39;27.58;;;22.73;;
55037;SDS011;40937;53.594;10.034;2022-09-24T20:07:09;23.23;;;21.00;;
55037;SDS011;40937;53.594;10.034;2022-09-24T20:10:29;24.60;;;22.02;;
55037;SDS011;40937;53.594;10.034;2022-09-24T20:13:07;23.25;;;21.27;;
55037;SDS011;40937;53.594;10.034;2022-09-24T20:16:07;24.08;;;21.55;;
55037;SDS011;40937;53.594;10.034;2022-09-24T20:18:45;25.00;;;22.70;;
55037;SDS011;40937;53.594;10.034;2022-09-24T20:24:27;25.60;;;23.40;;
55037;SDS011;40937;53.594;10.034;2022-09-24T20:26:58;25.40;;;23.17;;
55037;SDS011;40937;53.594;10.034;2022-09-24T20:29:57;24.58;;;22.17;;
55037;SDS011;40937;53.594;10.034;2022-09-24T20:32:24;23.95;;;21.77;;
55037;SDS011;40937;53.594;10.034;2022-09-24T20:34:56;25.38;;;22.90;;
55037;SDS011;40937;53.594;10.034;2022-09-24T20:37:27;25.75;;;23.48;;
55037;SDS011;40937;53.594;10.034;2022-09-24T20:40:25;25.63;;;23.42;;
55037;SDS011;40937;53.594;10.034;2022-09-24T20:43:16;26.35;;;24.10;;
55037;SDS011;40937;53.594;10.034;2022-09-24T20:46:08;25.80;;;23.25;;
55037;SDS011;40937;53.594;10.034;2022-09-24T20:48:50;27.73;;;25.17;;
55037;SDS011;40937;53.594;10.034;2022-09-24T20:52:17;26.67;;;24.27;;
55037;SDS011;40937;53.594;10.034;2022-09-24T20:54:48;25.73;;;23.38;;
55037;SDS011;40937;53.594;10.034;2022-09-24T20:57:39;27.05;;;24.42;;
55037;SDS011;40937;53.594;10.034;2022-09-24T21:00:16;25.30;;;23.15;;
55037;SDS011;40937;53.594;10.034;2022-09-24T21:03:38;26.42;;;24.13;;
55037;SDS011;40937;53.594;10.034;2022-09-24T21:06:17;26.20;;;23.58;;
55037;SDS011;40937;53.594;10.034;2022-09-24T21:08:51;24.23;;;22.10;;
55037;SDS011;40937;53.594;10.034;2022-09-24T21:11:32;25.52;;;23.35;;
55037;SDS011;40937;53.594;10.034;2022-09-24T21:14:08;26.75;;;24.42;;
55037;SDS011;40937;53.594;10.034;2022-09-24T21:17:11;25.95;;;23.48;;
55037;SDS011;40937;53.594;10.034;2022-09-24T21:19:58;28.27;;;25.65;;
55037;SDS011;40937;53.594;10.034;2022-09-24T21:22:34;27.45;;;25.00;;
55037;SDS011;40937;53.594;10.034;2022-09-24T21:25:00;28.15;;;25.65;;
55037;SDS011;40937;53.594;10.034;2022-09-24T21:27:27;27.05;;;24.50;;
55037;SDS011;40937;53.594;10.034;2022-09-24T21:29:55;25.73;;;23.40;;
55037;SDS011;40937;53.594;10.034;2022-09-24T21:32:22;26.52;;;24.23;;
55037;SDS011;40937;53.594;10.034;2022-09-24T21:34:48;27.60;;;24.88;;
55037;SDS011;40937;53.594;10.034;2022-09-24T21:37:15;27.88;;;25.00;;
55037;SDS011;40937;53.594;10.034;2022-09-24T21:39:41;26.13;;;23.67;;
55037;SDS011;40937;53.594;10.034;2022-09-24T21:42:09;25.13;;;22.92;;
55037;SDS011;40937;53.594;10.034;2022-09-24T21:44:36;26.23;;;23.52;;
55037;SDS011;40937;53.594;10.034;2022-09-24T21:47:04;26.17;;;23.65;;
55037;SDS011;40937;53.594;10.034;2022-09-24T21:49:31;24.80;;;22.58;;
55037;SDS011;40937;53.594;10.034;2022-09-24T21:52:01;25.02;;;22.75;;
55037;SDS011;40937;53.594;10.034;2022-09-24T21:54:29;26.13;;;23.63;;
55037;SDS011;40937;53.594;10.034;2022-09-24T21:56:57;24.83;;;22.63;;
55037;SDS011;40937;53.594;10.034;2022-09-24T21:59:24;26.65;;;24.05;;
55037;SDS011;40937;53.594;10.034;2022-09-24T22:02:09;28.13;;;25.30;;
55037;SDS011;40937;53.594;10.034;2022-09-24T22:04:36;29.05;;;26.33;;
55037;SDS011;40937;53.594;10.034;2022-09-24T22:07:03;29.13;;;26.52;;
55037;SDS011;40937;53.594;10.034;2022-09-24T22:09:30;28.30;;;25.60;;
55037;SDS011;40937;53.594;10.034;2022-09-24T22:11:57;30.25;;;27.00;;
55037;SDS011;40937;53.594;10.034;2022-09-24T22:14:25;26.70;;;24.25;;
55037;SDS011;40937;53.594;10.034;2022-09-24T22:16:52;26.27;;;23.58;;
55037;SDS011;40937;53.594;10.034;2022-09-24T22:19:20;26.33;;;23.70;;
55037;SDS011;40937;53.594;10.034;2022-09-24T22:21:47;26.48;;;23.98;;
55037;SDS011;40937;53.594;10.034;2022-09-24T22:24:14;26.23;;;23.73;;
55037;SDS011;40937;53.594;10.034;2022-09-24T22:26:40;26.83;;;23.95;;
55037;SDS011;40937;53.594;10.034;2022-09-24T22:29:07;25.88;;;23.42;;
55037;SDS011;40937;53.594;10.034;2022-09-24T22:31:34;26.80;;;24.23;;
55037;SDS011;40937;53.594;10.034;2022-09-24T22:34:00;32.92;;;23.85;;
55037;SDS011;40937;53.594;10.034;2022-09-24T22:36:46;25.65;;;23.30;;
55037;SDS011;40937;53.594;10.034;2022-09-24T22:39:13;26.42;;;23.98;;
55037;SDS011;40937;53.594;10.034;2022-09-24T22:41:40;25.13;;;22.92;;
55037;SDS011;40937;53.594;10.034;2022-09-24T22:44:08;26.02;;;23.27;;
55037;SDS011;40937;53.594;10.034;2022-09-24T22:46:36;24.73;;;22.38;;
55037;SDS011;40937;53.594;10.034;2022-09-24T22:49:05;22.50;;;20.67;;
55037;SDS011;40937;53.594;10.034;2022-09-24T22:51:32;23.40;;;21.10;;
55037;SDS011;40937;53.594;10.034;2022-09-24T22:54:05;24.08;;;21.70;;
55037;SDS011;40937;53.594;10.034;2022-09-24T22:56:33;23.33;;;21.15;;
55037;SDS011;40937;53.594;10.034;2022-09-24T22:59:00;24.02;;;21.52;;
55037;SDS011;40937;53.594;10.034;2022-09-24T23:01:27;27.08;;;24.38;;
55037;SDS011;40937;53.594;10.034;2022-09-24T23:03:55;26.25;;;23.55;;
55037;SDS011;40937;53.594;10.034;2022-09-24T23:06:23;26.98;;;24.60;;
55037;SDS011;40937;53.594;10.034;2022-09-24T23:08:51;26.52;;;24.05;;
55037;SDS011;40937;53.594;10.034;2022-09-24T23:11:20;28.63;;;25.58;;
55037;SDS011;40937;53.594;10.034;2022-09-24T23:13:50;27.90;;;25.13;;
55037;SDS011;40937;53.594;10.034;2022-09-24T23:16:18;26.85;;;24.35;;
55037;SDS011;40937;53.594;10.034;2022-09-24T23:18:46;26.85;;;24.25;;
55037;SDS011;40937;53.594;10.034;2022-09-24T23:21:14;28.73;;;25.73;;
55037;SDS011;40937;53.594;10.034;2022-09-24T23:23:43;30.02;;;26.85;;
55037;SDS011;40937;53.594;10.034;2022-09-24T23:26:10;29.08;;;26.27;;
55037;SDS011;40937;53.594;10.034;2022-09-24T23:28:39;27.00;;;24.45;;
55037;SDS011;40937;53.594;10.034;2022-09-24T23:31:06;27.77;;;24.92;;
55037;SDS011;40937;53.594;10.034;2022-09-24T23:33:35;27.60;;;25.00;;
55037;SDS011;40937;53.594;10.034;2022-09-24T23:36:04;27.42;;;24.60;;
55037;SDS011;40937;53.594;10.034;2022-09-24T23:38:32;28.33;;;25.58;;
55037;SDS011;40937;53.594;10.034;2022-09-24T23:40:59;28.10;;;25.15;;
55037;SDS011;40937;53.594;10.034;2022-09-24T23:43:27;29.98;;;27.10;;
55037;SDS011;40937;53.594;10.034;2022-09-24T23:45:56;29.63;;;26.65;;
55037;SDS011;40937;53.594;10.034;2022-09-24T23:48:23;26.55;;;23.88;;
55037;SDS011;40937;53.594;10.034;2022-09-24T23:50:50;26.05;;;23.38;;
55037;SDS011;40937;53.594;10.034;2022-09-24T23:53:17;24.23;;;21.88;;
55037;SDS011;40937;53.594;10.034;2022-09-24T23:55:45;25.73;;;22.98;;
55037;SDS011;40937;53.594;10.034;2022-09-24T23:58:13;25.92;;;23.63;;
